Time;durP1;ratioP1;P1;durP2;ratioP2;P2;SDS_P1;SDS_P2;PMS_P1;PMS_P2;Temp;Humidity;BMP_temperature;BMP_pressure;BME280_temperature;BME280_humidity;BME280_pressure;Samples;Min_cycle;Max_cycle;Signal;HPM_P1;HPM_P2
2024/01/28 00:02:17;;;;;;;10.23;4.93;;;;;;;27.18;28.65;103238.56;5078818;28;20519;-46
2024/01/28 00:04:42;;;;;;;10.38;5.20;;;;;;;27.13;28.60;103241.38;5078229;28;20503;-45
2024/01/28 00:07:08;;;;;;;9.25;5.15;;;;;;;27.10;28.61;103239.97;5051953;28;20110;-44
2024/01/28 00:09:33;;;;;;;10.35;5.20;;;;;;;27.06;28.71;103231.38;5076264;28;20031;-43
2024/01/28 00:11:59;;;;;;;11.73;5.50;;;;;;;27.03;28.78;103231.09;5069496;28;20119;-45
2024/01/28 00:14:24;;;;;;;9.88;5.05;;;;;;;26.95;28.66;103238.06;5072196;28;20317;-44
2024/01/28 00:16:49;;;;;;;9.88;4.90;;;;;;;26.97;28.67;103232.22;5080264;28;20024;-45
2024/01/28 00:19:15;;;;;;;9.13;5.28;;;;;;;26.83;28.93;103230.03;5065680;28;20032;-43
2024/01/28 00:21:41;;;;;;;11.00;5.35;;;;;;;26.76;29.13;103232.25;5047443;28;20039;-44
2024/01/28 00:24:07;;;;;;;10.68;5.25;;;;;;;26.71;28.84;103224.72;5059009;28;20507;-43
2024/01/28 00:26:39;;;;;;;8.07;5.18;;;;;;;26.77;28.76;103214.47;5070244;28;20035;-48
2024/01/28 00:29:04;;;;;;;7.72;4.85;;;;;;;26.75;28.92;103217.50;5072711;28;20451;-43
2024/01/28 00:31:29;;;;;;;9.52;5.15;;;;;;;26.72;28.86;103201.34;5071035;28;20028;-43
2024/01/28 00:33:55;;;;;;;9.65;5.18;;;;;;;26.69;29.07;103201.91;5066191;28;20032;-44
2024/01/28 00:36:20;;;;;;;11.50;5.47;;;;;;;26.72;29.00;103195.78;5077900;28;20036;-42
2024/01/28 00:38:46;;;;;;;12.77;5.45;;;;;;;26.74;28.96;103190.81;5078615;28;20516;-43
2024/01/28 00:41:28;;;;;;;10.82;5.85;;;;;;;26.63;29.03;103186.34;5074574;28;20333;-43
2024/01/28 00:43:54;;;;;;;11.77;5.72;;;;;;;26.57;28.84;103188.31;5080184;28;20085;-47
2024/01/28 00:46:20;;;;;;;10.13;5.20;;;;;;;26.66;28.90;103190.50;5080103;28;20032;-43
2024/01/28 00:48:46;;;;;;;9.50;5.18;;;;;;;26.51;28.96;103186.66;5076900;28;20430;-44
2024/01/28 00:51:12;;;;;;;9.75;5.15;;;;;;;26.57;28.90;103185.53;5077479;28;20032;-45
2024/01/28 00:53:37;;;;;;;10.60;5.00;;;;;;;26.54;29.13;103194.41;5075671;28;20054;-45
2024/01/28 00:56:03;;;;;;;9.93;4.85;;;;;;;26.47;28.81;103198.59;5069004;28;20537;-43
2024/01/28 00:58:29;;;;;;;11.10;5.53;;;;;;;26.49;29.08;103194.44;5078347;28;20024;-43
2024/01/28 01:00:55;;;;;;;9.65;5.20;;;;;;;26.45;28.80;103203.59;5057320;28;20463;-47
2024/01/28 01:03:20;;;;;;;10.10;5.78;;;;;;;26.43;28.96;103201.09;5063454;28;20701;-44
2024/01/28 01:05:46;;;;;;;13.20;5.60;;;;;;;26.49;28.86;103191.66;5076717;28;20519;-43
2024/01/28 01:08:11;;;;;;;11.63;5.10;;;;;;;26.49;28.99;103190.81;5083065;28;20020;-49
2024/01/28 01:10:37;;;;;;;10.98;5.20;;;;;;;26.40;29.03;103173.84;5078877;28;20020;-45
2024/01/28 01:13:02;;;;;;;11.98;5.38;;;;;;;26.40;29.13;103168.28;5073490;28;20481;-44
2024/01/28 01:15:29;;;;;;;12.30;5.45;;;;;;;26.34;29.35;103167.47;5065199;28;20027;-43
2024/01/28 01:17:56;;;;;;;13.55;4.97;;;;;;;26.28;29.30;103157.47;5076009;28;20065;-43
2024/01/28 01:20:21;;;;;;;9.90;5.15;;;;;;;26.22;29.55;103148.28;5072974;28;20036;-42
2024/01/28 01:22:46;;;;;;;11.35;5.65;;;;;;;26.26;29.38;103148.56;5079587;28;20068;-42
2024/01/28 01:25:13;;;;;;;10.38;5.13;;;;;;;26.26;29.39;103149.41;5049920;28;20024;-43
2024/01/28 01:27:38;;;;;;;16.85;5.15;;;;;;;26.23;29.13;103143.59;5062429;28;20445;-42
2024/01/28 01:30:05;;;;;;;10.13;5.28;;;;;;;26.15;29.30;103131.06;5076511;28;20115;-42
2024/01/28 01:32:30;;;;;;;11.63;5.13;;;;;;;26.24;29.34;103125.78;5075383;28;20043;-43
2024/01/28 01:34:56;;;;;;;12.82;5.47;;;;;;;26.21;29.05;103113.28;5077446;28;20024;-45
2024/01/28 01:37:21;;;;;;;9.57;5.10;;;;;;;26.25;29.42;103108.00;5063852;28;20035;-44
2024/01/28 01:39:46;;;;;;;10.88;5.20;;;;;;;26.26;29.07;103113.25;5059564;28;20465;-46
2024/01/28 01:42:12;;;;;;;14.48;5.35;;;;;;;26.14;29.30;103115.50;5079918;28;20596;-44
2024/01/28 01:44:37;;;;;;;12.50;5.38;;;;;;;26.19;29.07;103115.50;5074135;28;20028;-43
2024/01/28 01:47:03;;;;;;;8.93;5.35;;;;;;;26.12;29.29;103120.53;5077638;28;20444;-44
2024/01/28 01:49:28;;;;;;;8.98;4.97;;;;;;;26.09;28.96;103126.63;5056653;28;20029;-44
2024/01/28 01:51:54;;;;;;;9.48;4.68;;;;;;;26.07;29.40;103118.56;5063995;28;20077;-45
2024/01/28 01:54:20;;;;;;;12.02;5.45;;;;;;;26.17;28.88;103116.88;5080649;28;20081;-45
2024/01/28 01:56:45;;;;;;;9.45;5.60;;;;;;;26.11;29.13;103110.50;5060834;28;20523;-45
2024/01/28 01:59:12;;;;;;;9.88;5.20;;;;;;;26.07;29.24;103110.22;5062867;28;20408;-42
2024/01/28 02:01:38;;;;;;;10.90;5.00;;;;;;;26.13;29.00;103104.66;5078217;28;20032;-43
2024/01/28 02:04:03;;;;;;;9.77;4.82;;;;;;;26.13;28.89;103113.84;5068741;28;20488;-44
2024/01/28 02:06:29;;;;;;;10.20;4.90;;;;;;;26.07;28.84;103118.56;5056501;28;20028;-43
2024/01/28 02:08:55;;;;;;;9.38;4.90;;;;;;;26.06;28.89;103118.81;5074047;28;20107;-45
2024/01/28 02:11:21;;;;;;;12.13;4.95;;;;;;;25.95;29.28;103112.44;5079675;28;20476;-45
2024/01/28 02:13:47;;;;;;;10.07;4.80;;;;;;;25.88;29.28;103111.88;5081462;28;20511;-43
2024/01/28 02:16:12;;;;;;;9.10;4.45;;;;;;;25.86;29.25;103114.94;5079768;28;20033;-49
2024/01/28 02:18:38;;;;;;;9.40;4.47;;;;;;;25.87;28.98;103116.56;5079200;28;20039;-43
2024/01/28 02:21:03;;;;;;;8.65;5.00;;;;;;;25.84;29.22;103107.97;5078900;28;20277;-45
2024/01/28 02:23:29;;;;;;;9.63;5.53;;;;;;;25.87;29.31;103115.75;5077707;28;20036;-44
2024/01/28 02:25:54;;;;;;;8.00;4.60;;;;;;;25.77;29.14;103119.34;5082455;28;20035;-44
2024/01/28 02:28:21;;;;;;;6.68;4.20;;;;;;;25.81;29.36;103105.75;5082745;28;20035;-42
2024/01/28 02:30:47;;;;;;;9.68;4.65;;;;;;;25.79;29.12;103104.06;5083088;28;20388;-43
2024/01/28 02:33:12;;;;;;;9.60;4.65;;;;;;;25.82;29.01;103102.69;5061183;28;20107;-42
2024/01/28 02:35:37;;;;;;;8.98;4.43;;;;;;;25.87;28.89;103104.63;5080079;28;20056;-43
2024/01/28 02:38:03;;;;;;;5.28;4.00;;;;;;;25.81;29.17;103109.34;5074889;28;20566;-44
2024/01/28 02:40:28;;;;;;;9.43;4.30;;;;;;;25.79;28.92;103104.06;5085400;28;20024;-43
2024/01/28 02:42:54;;;;;;;6.63;4.25;;;;;;;25.78;28.84;103093.25;5062781;28;20027;-44
2024/01/28 02:45:19;;;;;;;9.45;4.35;;;;;;;25.86;29.19;103091.84;5065750;28;20032;-45
2024/01/28 02:47:45;;;;;;;10.98;4.90;;;;;;;25.79;29.15;103094.91;5068423;28;20028;-44
2024/01/28 02:50:10;;;;;;;9.75;5.63;;;;;;;25.78;28.91;103094.06;5061334;28;20024;-43
2024/01/28 02:52:35;;;;;;;9.23;4.50;;;;;;;25.77;28.78;103086.84;5077693;28;20035;-45
2024/01/28 02:55:01;;;;;;;8.63;4.15;;;;;;;25.62;29.37;103084.06;5080608;28;20028;-43
2024/01/28 02:57:26;;;;;;;12.38;4.95;;;;;;;25.67;29.00;103080.47;5084364;28;20088;-45
2024/01/28 02:59:52;;;;;;;8.57;4.70;;;;;;;25.70;28.88;103071.56;5075752;28;20135;-48
2024/01/28 03:02:18;;;;;;;7.60;4.05;;;;;;;25.68;28.90;103065.44;5085308;28;20031;-46
2024/01/28 03:04:44;;;;;;;12.32;4.32;;;;;;;25.65;29.07;103061.28;5085212;28;20110;-44
2024/01/28 03:07:09;;;;;;;7.60;4.50;;;;;;;25.61;28.99;103066.56;5084082;28;20396;-43
2024/01/28 03:09:34;;;;;;;9.98;4.38;;;;;;;25.63;29.09;103061.56;5072416;28;20433;-44
2024/01/28 03:12:00;;;;;;;9.18;4.72;;;;;;;25.62;29.16;103061.84;5066292;28;20108;-44
2024/01/28 03:14:26;;;;;;;7.55;4.20;;;;;;;25.54;28.97;103048.50;5081248;28;20560;-44
2024/01/28 03:16:52;;;;;;;8.80;4.28;;;;;;;25.51;29.06;103038.81;5085231;28;20028;-43
2024/01/28 03:19:17;;;;;;;9.25;3.97;;;;;;;25.53;28.46;103042.16;5084681;28;20038;-43
2024/01/28 03:21:43;;;;;;;7.60;4.28;;;;;;;25.54;28.84;103048.50;5076281;28;20048;-43
2024/01/28 03:24:09;;;;;;;7.85;4.22;;;;;;;25.56;29.11;103051.84;5059563;28;20119;-44
2024/01/28 03:26:35;;;;;;;9.63;4.53;;;;;;;25.47;29.36;103043.25;5084119;28;20502;-43
2024/01/28 03:29:01;;;;;;;6.35;4.15;;;;;;;25.55;28.97;103041.84;5083036;28;20024;-44
2024/01/28 03:31:27;;;;;;;8.13;4.50;;;;;;;25.51;28.94;103036.03;5083581;28;20043;-44
2024/01/28 03:33:52;;;;;;;7.18;4.05;;;;;;;25.56;28.90;103036.03;5075554;28;20024;-47
2024/01/28 03:36:18;;;;;;;7.80;4.40;;;;;;;25.59;28.77;103040.19;5076986;28;20036;-43
2024/01/28 03:38:43;;;;;;;7.28;3.92;;;;;;;25.60;28.63;103042.72;5074433;28;20370;-43
2024/01/28 03:41:08;;;;;;;8.25;4.00;;;;;;;25.69;28.93;103044.91;5081048;28;20031;-43
2024/01/28 03:43:34;;;;;;;9.05;4.30;;;;;;;25.75;28.88;103043.81;5080697;28;20102;-43
2024/01/28 03:45:59;;;;;;;7.95;4.13;;;;;;;25.67;28.46;103045.19;5080797;28;20028;-44
2024/01/28 03:48:25;;;;;;;10.80;4.20;;;;;;;25.63;28.61;103036.59;5061690;28;20606;-44
2024/01/28 03:50:50;;;;;;;6.75;3.90;;;;;;;25.62;28.90;103039.66;5056656;28;20111;-43
2024/01/28 03:53:15;;;;;;;7.43;4.30;;;;;;;25.60;28.73;103027.97;5082739;28;20464;-45
2024/01/28 03:55:43;;;;;;;7.65;4.00;;;;;;;25.56;28.82;103032.44;5084588;28;20032;-45
2024/01/28 03:58:10;;;;;;;9.35;3.70;;;;;;;25.58;28.68;103024.63;5069843;28;20031;-42
2024/01/28 04:00:35;;;;;;;13.18;4.28;;;;;;;25.51;28.66;103024.91;5066823;28;20413;-42
2024/01/28 04:03:01;;;;;;;7.55;3.83;;;;;;;25.47;29.05;103032.16;5075045;28;20063;-42
2024/01/28 04:05:26;;;;;;;9.52;4.20;;;;;;;25.45;28.72;103034.34;5059688;28;20107;-44
2024/01/28 04:07:52;;;;;;;7.70;4.13;;;;;;;25.44;28.84;103032.69;5068497;28;20028;-43
2024/01/28 04:10:17;;;;;;;9.18;3.95;;;;;;;25.38;29.01;103019.91;5066645;28;20020;-43
2024/01/28 04:12:43;;;;;;;7.28;4.10;;;;;;;25.33;28.82;103019.88;5057245;28;20424;-43
2024/01/28 04:15:08;;;;;;;8.63;4.00;;;;;;;25.31;29.21;103012.66;5065867;28;20071;-45
2024/01/28 04:17:35;;;;;;;9.05;4.00;;;;;;;25.27;29.06;103008.78;5080145;28;20043;-45
2024/01/28 04:20:00;;;;;;;7.88;4.28;;;;;;;25.36;28.67;103010.97;5082049;28;20461;-43
2024/01/28 04:22:26;;;;;;;7.95;4.22;;;;;;;25.26;28.71;103004.31;5074749;28;20031;-43
2024/01/28 04:24:52;;;;;;;8.20;4.40;;;;;;;25.26;28.58;103001.56;5070981;28;20228;-43
2024/01/28 04:27:17;;;;;;;7.93;3.35;;;;;;;25.22;29.21;103003.19;5061410;28;20295;-43
2024/01/28 04:29:43;;;;;;;6.78;3.90;;;;;;;25.19;28.84;102998.22;5054477;28;20111;-43
2024/01/28 04:32:11;;;;;;;10.80;4.35;;;;;;;25.13;28.74;102999.31;5076642;28;20458;-44
2024/01/28 04:34:36;;;;;;;9.48;3.90;;;;;;;25.13;29.08;102996.53;5081669;28;20473;-44
2024/01/28 04:37:02;;;;;;;8.40;3.95;;;;;;;25.17;28.96;102989.31;5069538;28;20031;-43
2024/01/28 04:39:27;;;;;;;5.93;4.00;;;;;;;25.20;29.09;102999.88;5080327;28;20484;-43
2024/01/28 04:41:53;;;;;;;8.95;3.92;;;;;;;25.11;28.89;102995.97;5077883;28;20024;-43
2024/01/28 04:44:21;;;;;;;5.82;3.45;;;;;;;25.15;28.76;102981.28;5080057;28;20500;-43
2024/01/28 04:46:48;;;;;;;7.47;4.18;;;;;;;25.18;28.83;102988.22;5082310;28;20047;-42
2024/01/28 04:49:14;;;;;;;10.07;4.50;;;;;;;25.04;28.69;102979.59;5061855;28;20017;-43
2024/01/28 04:51:39;;;;;;;8.02;4.22;;;;;;;25.12;28.75;102976.25;5071721;28;20032;-42
2024/01/28 04:54:05;;;;;;;7.13;3.90;;;;;;;25.10;28.62;102977.66;5054059;28;20024;-43
2024/01/28 04:56:31;;;;;;;7.60;3.92;;;;;;;25.05;28.78;102980.41;5081158;28;20040;-44
2024/01/28 04:58:57;;;;;;;7.20;3.80;;;;;;;25.10;29.00;102970.19;5065512;28;20843;-45
2024/01/28 05:01:23;;;;;;;7.63;3.60;;;;;;;25.04;29.19;102965.72;5082923;28;20024;-43
2024/01/28 05:03:49;;;;;;;7.32;3.72;;;;;;;25.24;28.99;102964.91;5077122;28;20042;-45
2024/01/28 05:06:14;;;;;;;7.03;3.65;;;;;;;25.50;28.61;102969.69;5071360;28;20056;-43
2024/01/28 05:08:40;;;;;;;8.07;4.10;;;;;;;25.37;28.71;102954.38;5071146;28;20035;-46
2024/01/28 05:11:06;;;;;;;8.48;3.80;;;;;;;25.23;28.78;102954.09;5078723;28;20487;-43
2024/01/28 05:13:31;;;;;;;7.15;3.65;;;;;;;25.14;29.06;102962.13;5068196;28;20033;-42
2024/01/28 05:15:56;;;;;;;7.05;4.00;;;;;;;25.20;29.15;102955.47;5076783;28;20515;-43
2024/01/28 05:18:22;;;;;;;6.47;3.65;;;;;;;25.21;28.78;102947.97;5075615;28;20077;-44
2024/01/28 05:20:47;;;;;;;7.40;3.60;;;;;;;25.24;28.86;102942.72;5085247;28;20028;-43
2024/01/28 05:23:13;;;;;;;5.38;3.55;;;;;;;25.47;28.84;102937.75;5075597;28;20040;-44
2024/01/28 05:25:38;;;;;;;6.82;3.55;;;;;;;25.58;29.01;102933.88;5086857;28;20015;-43
2024/01/28 05:28:06;;;;;;;6.07;3.70;;;;;;;25.61;29.06;102932.47;5075088;28;20016;-43
2024/01/28 05:30:32;;;;;;;6.25;3.53;;;;;;;25.78;28.58;102930.22;5078379;28;20032;-44
2024/01/28 05:32:57;;;;;;;6.03;3.65;;;;;;;25.87;28.47;102924.09;5079742;28;20030;-42
2024/01/28 05:35:23;;;;;;;9.63;3.72;;;;;;;26.02;28.40;102926.84;5071035;28;20029;-42
2024/01/28 05:37:48;;;;;;;5.20;3.78;;;;;;;26.11;28.39;102916.84;5082980;28;20574;-46
2024/01/28 05:40:13;;;;;;;5.75;4.05;;;;;;;26.15;28.29;102913.50;5086696;28;20027;-45
2024/01/28 05:42:39;;;;;;;9.73;4.10;;;;;;;26.31;28.37;102915.09;5063897;28;20115;-42
2024/01/28 05:45:05;;;;;;;7.38;3.75;;;;;;;26.43;28.30;102912.81;5079130;28;20036;-43
2024/01/28 05:47:31;;;;;;;6.20;3.38;;;;;;;26.52;28.40;102915.81;5061721;28;20035;-45
2024/01/28 05:49:56;;;;;;;6.00;3.50;;;;;;;26.59;28.56;102921.06;5070911;28;20020;-43
2024/01/28 05:52:21;;;;;;;5.53;3.50;;;;;;;26.74;28.04;102929.38;5072636;28;20495;-43
2024/01/28 05:54:47;;;;;;;6.47;3.38;;;;;;;26.77;27.98;102925.19;5079984;28;20020;-46
2024/01/28 05:57:12;;;;;;;6.25;3.25;;;;;;;26.90;28.11;102929.25;5082697;28;20621;-44
2024/01/28 05:59:38;;;;;;;7.20;3.42;;;;;;;27.04;28.20;102924.72;5060052;28;20036;-43
2024/01/28 06:02:03;;;;;;;6.85;4.13;;;;;;;27.16;28.01;102920.72;5085707;28;20031;-47
2024/01/28 06:04:29;;;;;;;6.88;3.63;;;;;;;27.11;28.05;102918.00;5087576;28;20028;-47
2024/01/28 06:06:55;;;;;;;8.25;3.83;;;;;;;27.18;27.73;102924.88;5078950;28;20031;-43
2024/01/28 06:09:21;;;;;;;6.22;3.15;;;;;;;27.22;27.74;102925.13;5062818;28;20471;-45
2024/01/28 06:11:46;;;;;;;10.02;3.38;;;;;;;27.15;27.64;102928.25;5081930;28;20028;-44
2024/01/28 06:14:12;;;;;;;8.85;3.55;;;;;;;27.03;28.00;102913.88;5085176;28;20067;-46
2024/01/28 06:16:37;;;;;;;8.95;3.80;;;;;;;26.84;27.93;102922.06;5082556;28;20052;-43
2024/01/28 06:19:03;;;;;;;6.18;3.30;;;;;;;26.61;28.31;102920.78;5058641;28;20020;-44
2024/01/28 06:21:29;;;;;;;7.88;3.85;;;;;;;26.44;28.26;102910.88;5085492;28;20028;-47
2024/01/28 06:23:55;;;;;;;8.45;3.60;;;;;;;26.45;28.62;102912.53;5074919;28;20543;-44
2024/01/28 06:26:20;;;;;;;5.50;3.55;;;;;;;26.37;28.65;102910.34;5080518;28;20035;-47
2024/01/28 06:28:46;;;;;;;7.43;3.50;;;;;;;26.48;28.14;102920.28;5080215;28;20490;-45
2024/01/28 06:31:12;;;;;;;6.47;3.45;;;;;;;26.45;28.26;102915.31;5078912;28;20440;-48
2024/01/28 06:33:38;;;;;;;6.85;3.58;;;;;;;26.38;28.24;102906.47;5072042;28;20032;-42
2024/01/28 06:36:04;;;;;;;6.75;3.65;;;;;;;26.17;28.23;102900.13;5080138;28;20035;-42
2024/01/28 06:38:30;;;;;;;6.32;3.63;;;;;;;26.11;28.28;102894.59;5061216;28;20034;-44
2024/01/28 06:40:57;;;;;;;7.95;3.33;;;;;;;26.13;28.48;102902.69;5079461;28;20119;-45
2024/01/28 06:43:25;;;;;;;5.35;3.67;;;;;;;26.09;28.59;102898.78;5061456;28;20101;-45
2024/01/28 06:45:50;;;;;;;6.28;3.55;;;;;;;26.03;28.60;102895.19;5084755;28;20673;-43
2024/01/28 06:48:16;;;;;;;5.28;3.28;;;;;;;25.99;28.30;102888.50;5082199;28;20054;-45
2024/01/28 06:50:42;;;;;;;7.13;3.92;;;;;;;25.92;28.47;102888.81;5082575;28;20048;-44
2024/01/28 06:53:07;;;;;;;6.15;3.38;;;;;;;26.00;28.29;102892.94;5084893;28;20448;-43
2024/01/28 06:55:33;;;;;;;7.97;3.45;;;;;;;25.92;28.79;102886.03;5076747;28;20044;-46
2024/01/28 06:58:00;;;;;;;8.63;3.67;;;;;;;25.94;28.31;102888.53;5075364;28;20042;-43
2024/01/28 07:00:25;;;;;;;6.70;3.65;;;;;;;26.11;28.16;102882.66;5078841;28;20048;-44
2024/01/28 07:02:53;;;;;;;5.90;3.50;;;;;;;26.04;28.27;102887.66;5077015;28;20032;-47
2024/01/28 07:05:19;;;;;;;6.63;3.63;;;;;;;26.19;28.24;102889.56;5082409;28;20507;-44
2024/01/28 07:07:44;;;;;;;6.13;3.38;;;;;;;26.09;28.40;102887.66;5078893;28;20036;-43
2024/01/28 07:10:10;;;;;;;5.47;3.58;;;;;;;26.11;28.22;102888.22;5067329;28;20139;-47
2024/01/28 07:12:36;;;;;;;5.97;3.65;;;;;;;26.10;28.43;102892.13;5071959;28;20447;-46
2024/01/28 07:15:02;;;;;;;9.32;3.78;;;;;;;26.17;28.06;102897.34;5068337;28;20040;-43
2024/01/28 07:17:27;;;;;;;7.43;3.53;;;;;;;26.11;28.52;102893.78;5081512;28;20031;-44
2024/01/28 07:19:52;;;;;;;6.97;3.60;;;;;;;26.09;28.47;102887.66;5079219;28;20030;-43
2024/01/28 07:22:18;;;;;;;5.80;3.80;;;;;;;26.17;28.25;102883.47;5073790;28;20473;-42
2024/01/28 07:24:43;;;;;;;6.50;3.45;;;;;;;26.14;28.30;102886.81;5081478;28;20066;-45
2024/01/28 07:27:09;;;;;;;5.93;3.30;;;;;;;26.03;28.47;102884.06;5074303;28;20066;-43
2024/01/28 07:29:34;;;;;;;6.03;3.28;;;;;;;26.03;28.37;102888.78;5078180;28;20528;-46
2024/01/28 07:32:00;;;;;;;5.93;3.47;;;;;;;25.89;28.50;102880.22;5082817;28;20032;-44
2024/01/28 07:34:25;;;;;;;7.53;3.40;;;;;;;25.88;28.24;102868.25;5080801;28;20028;-43
2024/01/28 07:36:51;;;;;;;6.78;3.38;;;;;;;25.84;28.36;102866.34;5076816;28;20032;-42
2024/01/28 07:39:16;;;;;;;7.32;3.65;;;;;;;25.92;28.21;102865.75;5074191;28;20356;-43
2024/01/28 07:41:42;;;;;;;6.57;3.90;;;;;;;25.82;28.16;102858.28;5084649;28;20027;-43
2024/01/28 07:44:08;;;;;;;6.63;3.50;;;;;;;25.80;28.34;102857.75;5074345;28;20058;-44
2024/01/28 07:46:33;;;;;;;6.78;3.53;;;;;;;25.81;28.25;102856.63;5085002;28;20024;-44
2024/01/28 07:48:59;;;;;;;7.32;3.63;;;;;;;25.75;28.35;102857.75;5074607;28;20047;-46
2024/01/28 07:51:25;;;;;;;7.22;3.63;;;;;;;25.86;28.31;102853.84;5071936;28;20523;-44
2024/01/28 07:53:50;;;;;;;6.75;3.50;;;;;;;25.76;28.42;102849.16;5067103;28;20040;-43
2024/01/28 07:56:16;;;;;;;7.53;3.58;;;;;;;25.89;28.52;102846.88;5078577;28;20042;-44
2024/01/28 07:58:41;;;;;;;6.03;3.50;;;;;;;25.89;28.08;102842.16;5047496;28;20509;-45
2024/01/28 08:01:07;;;;;;;6.95;3.55;;;;;;;25.89;28.11;102839.38;5070788;28;20056;-44
2024/01/28 08:03:32;;;;;;;7.53;3.45;;;;;;;25.78;28.50;102834.97;5073766;28;20390;-43
2024/01/28 08:05:57;;;;;;;7.90;3.63;;;;;;;25.92;28.22;102841.59;5068793;28;20028;-42
2024/01/28 08:08:23;;;;;;;6.40;4.15;;;;;;;25.97;28.06;102846.28;5080299;28;20465;-46
2024/01/28 08:10:49;;;;;;;6.38;3.60;;;;;;;26.00;28.26;102842.13;5078584;28;20039;-45
2024/01/28 08:13:15;;;;;;;5.70;3.17;;;;;;;25.94;28.60;102842.13;5081417;28;20028;-45
2024/01/28 08:15:40;;;;;;;5.15;3.17;;;;;;;26.05;28.37;102839.31;5070743;28;20024;-42
2024/01/28 08:18:06;;;;;;;6.28;3.42;;;;;;;25.97;28.27;102835.16;5081552;28;20053;-47
2024/01/28 08:20:31;;;;;;;6.28;3.53;;;;;;;25.96;28.50;102839.09;5059160;28;20028;-46
2024/01/28 08:22:57;;;;;;;6.07;3.50;;;;;;;26.06;28.15;102833.50;5065910;28;20378;-44
2024/01/28 08:25:23;;;;;;;6.20;3.80;;;;;;;26.05;28.44;102837.38;5084543;28;20028;-46
2024/01/28 08:27:48;;;;;;;11.75;3.40;;;;;;;26.05;28.29;102836.53;5082927;28;20209;-46
2024/01/28 08:30:15;;;;;;;7.32;3.45;;;;;;;26.02;28.35;102832.38;5075070;28;20120;-44
2024/01/28 08:32:40;;;;;;;4.75;3.13;;;;;;;25.94;28.17;102835.75;5072860;28;20405;-43
2024/01/28 08:35:07;;;;;;;8.52;3.65;;;;;;;25.98;27.98;102842.38;5080628;28;20024;-44
2024/01/28 08:37:32;;;;;;;7.40;3.30;;;;;;;26.02;28.32;102831.53;5078482;28;20054;-46
2024/01/28 08:39:58;;;;;;;5.88;3.20;;;;;;;25.93;28.17;102823.81;5074595;28;20028;-44
2024/01/28 08:42:24;;;;;;;7.55;3.30;;;;;;;26.05;28.35;102831.00;5082340;28;20038;-45
2024/01/28 08:44:49;;;;;;;5.72;3.30;;;;;;;26.09;27.85;102827.41;5077183;28;20085;-43
2024/01/28 08:47:15;;;;;;;6.10;3.13;;;;;;;25.99;28.29;102827.41;5082690;28;20451;-43
2024/01/28 08:49:41;;;;;;;7.80;3.30;;;;;;;25.94;28.20;102821.88;5077427;28;20034;-45
2024/01/28 08:52:06;;;;;;;13.63;3.40;;;;;;;26.04;27.79;102818.22;5080476;28;20027;-45
2024/01/28 08:54:32;;;;;;;7.75;3.58;;;;;;;26.02;27.91;102814.88;5080546;28;20077;-45
2024/01/28 08:56:58;;;;;;;5.72;3.05;;;;;;;25.92;28.07;102810.19;5076908;28;20028;-43
2024/01/28 08:59:24;;;;;;;7.10;3.30;;;;;;;25.92;28.32;102811.03;5080417;28;20121;-43
2024/01/28 09:01:51;;;;;;;6.80;3.65;;;;;;;25.94;28.41;102811.56;5083621;28;20532;-43
2024/01/28 09:04:17;;;;;;;6.25;3.65;;;;;;;26.01;28.04;102816.00;5079926;28;20262;-45
2024/01/28 09:06:43;;;;;;;8.45;3.53;;;;;;;25.99;28.33;102810.72;5064903;28;20545;-43
2024/01/28 09:09:08;;;;;;;5.13;3.38;;;;;;;26.08;27.72;102817.38;5074496;28;20048;-47
2024/01/28 09:11:37;;;;;;;3.90;3.10;;;;;;;26.13;27.84;102804.56;5073100;28;20055;-46
2024/01/28 09:14:03;;;;;;;6.75;3.42;;;;;;;26.19;27.86;102803.44;5079410;28;20036;-45
2024/01/28 09:16:29;;;;;;;6.45;3.33;;;;;;;26.33;27.73;102807.25;5073739;28;20537;-43
2024/01/28 09:18:54;;;;;;;7.30;3.03;;;;;;;26.32;27.81;102805.59;5082354;28;20308;-43
2024/01/28 09:21:19;;;;;;;4.75;3.05;;;;;;;26.35;27.99;102813.34;5082805;28;20111;-43
2024/01/28 09:23:45;;;;;;;5.60;3.08;;;;;;;26.42;27.95;102811.09;5062407;28;20028;-45
2024/01/28 09:26:11;;;;;;;5.65;3.80;;;;;;;26.42;27.86;102807.47;5081321;28;20444;-43
2024/01/28 09:28:37;;;;;;;7.60;3.40;;;;;;;26.52;27.38;102806.56;5078179;28;20024;-44
2024/01/28 09:31:06;;;;;;;7.40;3.47;;;;;;;26.56;27.53;102804.84;5080207;28;20031;-44
2024/01/28 09:33:31;;;;;;;4.82;3.10;;;;;;;26.55;27.45;102800.44;5078044;28;20036;-45
2024/01/28 09:35:56;;;;;;;5.85;3.00;;;;;;;26.60;27.30;102800.41;5067767;28;20032;-45
2024/01/28 09:38:22;;;;;;;6.38;3.55;;;;;;;26.63;27.42;102797.03;5079079;28;20035;-45
2024/01/28 09:40:48;;;;;;;7.85;3.60;;;;;;;26.65;27.52;102803.13;5080564;28;20042;-44
2024/01/28 09:43:27;;;;;;;5.65;3.55;;;;;;;26.73;27.25;102796.97;5077975;28;20504;-45
2024/01/28 09:45:53;;;;;;;6.30;3.80;;;;;;;26.72;26.89;102803.63;5079910;28;20027;-43
2024/01/28 09:48:19;;;;;;;7.70;3.78;;;;;;;26.71;27.00;102804.75;5083364;28;20029;-43
2024/01/28 09:50:45;;;;;;;7.45;3.60;;;;;;;26.71;27.01;102799.19;5074450;28;20126;-44
2024/01/28 09:53:12;;;;;;;5.78;3.58;;;;;;;26.77;27.04;102793.63;5067484;28;20221;-44
2024/01/28 09:55:38;;;;;;;6.88;3.97;;;;;;;26.81;26.96;102792.75;5077583;28;20024;-45
2024/01/28 09:58:03;;;;;;;5.40;3.72;;;;;;;26.78;26.88;102796.13;5064229;28;20024;-45
2024/01/28 10:00:29;;;;;;;6.57;3.92;;;;;;;26.82;26.57;102780.50;5078933;28;20044;-41
2024/01/28 10:02:54;;;;;;;6.40;4.00;;;;;;;26.79;26.75;102792.19;5081337;28;20028;-45
2024/01/28 10:05:20;;;;;;;6.22;4.07;;;;;;;26.86;26.81;102775.19;5077440;28;20609;-46
2024/01/28 10:07:50;;;;;;;5.25;3.53;;;;;;;26.90;26.49;102770.69;5083625;28;20437;-44
2024/01/28 10:10:17;;;;;;;6.05;3.80;;;;;;;26.89;26.83;102777.38;5082050;28;20369;-46
2024/01/28 10:12:43;;;;;;;5.93;3.90;;;;;;;26.90;26.70;102777.09;5077616;28;20023;-43
2024/01/28 10:15:16;;;;;;;8.80;4.10;;;;;;;26.97;26.57;102781.50;5057564;28;20544;-46
2024/01/28 10:17:47;;;;;;;5.60;3.53;;;;;;;27.00;26.38;102776.19;5062026;28;20039;-47
2024/01/28 10:20:23;;;;;;;5.90;3.38;;;;;;;27.02;26.45;102784.22;5081543;28;20073;-45
2024/01/28 10:22:49;;;;;;;9.55;4.20;;;;;;;27.02;26.60;102776.69;5080200;28;20209;-45
2024/01/28 10:25:16;;;;;;;9.73;3.90;;;;;;;27.02;26.43;102773.91;5072884;28;20103;-48
2024/01/28 10:27:42;;;;;;;6.82;3.97;;;;;;;27.06;26.48;102772.22;5080595;28;20480;-43
2024/01/28 10:30:08;;;;;;;9.82;4.30;;;;;;;27.08;26.77;102771.94;5076810;28;20020;-47
2024/01/28 10:32:33;;;;;;;6.80;3.60;;;;;;;27.11;26.53;102774.09;5061343;28;20043;-45
2024/01/28 10:34:58;;;;;;;9.60;3.90;;;;;;;27.17;27.38;102780.47;5082457;28;20024;-47
2024/01/28 10:37:27;;;;;;;23.20;4.93;;;;;;;27.31;28.20;102775.88;5084574;28;20051;-44
2024/01/28 10:39:56;;;;;;;20.20;5.10;;;;;;;27.38;28.65;102772.72;5059357;28;20049;-44
2024/01/28 10:42:24;;;;;;;33.08;6.10;;;;;;;27.47;29.45;102767.38;5077843;28;20028;-49
2024/01/28 10:44:51;;;;;;;38.75;6.95;;;;;;;27.63;30.62;102766.06;5067369;28;20496;-45
2024/01/28 10:47:17;;;;;;;36.30;8.15;;;;;;;27.73;32.21;102758.72;5056435;28;20024;-49
2024/01/28 10:49:43;;;;;;;43.00;7.28;;;;;;;27.70;33.79;102755.38;5057299;28;20238;-47
2024/01/28 10:52:09;;;;;;;33.70;7.50;;;;;;;27.70;34.45;102752.59;5067789;28;20184;-47
2024/01/28 10:54:37;;;;;;;36.58;7.45;;;;;;;27.73;34.84;102750.34;5059834;28;20133;-47
2024/01/28 10:57:04;;;;;;;21.08;6.25;;;;;;;27.73;34.63;102751.19;5065878;28;20027;-43
2024/01/28 10:59:29;;;;;;;18.48;5.60;;;;;;;27.77;34.35;102741.06;5067607;28;20488;-44
2024/01/28 11:01:55;;;;;;;22.40;5.78;;;;;;;27.80;33.71;102729.34;5075511;28;20095;-46
2024/01/28 11:04:21;;;;;;;18.23;4.88;;;;;;;27.83;32.74;102734.31;5065460;28;20035;-44
2024/01/28 11:06:46;;;;;;;12.15;4.82;;;;;;;27.82;32.43;102732.69;5064009;28;20167;-45
2024/01/28 11:09:12;;;;;;;17.88;5.03;;;;;;;27.82;32.02;102721.53;5056619;28;20417;-46
2024/01/28 11:11:37;;;;;;;12.73;4.25;;;;;;;27.86;32.00;102718.97;5063396;28;20032;-52
2024/01/28 11:14:09;;;;;;;13.93;4.45;;;;;;;27.88;31.73;102716.69;5085148;28;20024;-48
2024/01/28 11:16:36;;;;;;;17.40;4.70;;;;;;;27.91;31.48;102712.47;5074303;28;20047;-49
2024/01/28 11:19:08;;;;;;;19.60;4.82;;;;;;;27.93;30.80;102702.69;5083887;28;20504;-44